• Join FlightAware (Why Join?)
  • Login
  • US Flag 
12:25AM EDT


 

Airport Tracker/Info


-or-


 

Live Flight TrackerFlight Track Log ✈ CDG4622 ✈ 24-Jul-2013 ✈ ZYTL / DLC - ZSQD / TAO

Flight Track Log - Related Links

Times and Time Zones

All times are in EDT time to prevent confusion due to time zone crossing. See the CDG4622 flight status page for this flight to view local times or setup timezone preferences in your user account.

Time Position Orientation Groundspeed Altitude Reporting Facility
EDT Latitude Longitude Course Direction KTS MPH feet Rate Location/Type
04:01AM 38.2256 121.2104 199° South  Level Estimated
04:02AM 38.1583 121.1809 199° South  Level Estimated
04:03AM 38.0910 121.1515 199° South  Level Estimated
04:04AM 38.0236 121.1221 199° South  Level Estimated
04:05AM 37.9563 121.0928 199° South  Level Estimated
04:06AM 37.8889 121.0635 199° South  Level Estimated
04:07AM 37.8216 121.0342 199° South  Level Estimated
04:08AM 37.7542 121.0051 199° South  Level Estimated
04:09AM 37.6868 120.9759 199° South  Level Estimated
04:10AM 37.6194 120.9469 199° South  Level Estimated
04:11AM 37.5521 120.9178 199° South  Level Estimated
04:12AM 37.4846 120.8889 199° South  Level Estimated
04:13AM 37.4173 120.8600 199° South  Level Estimated
04:14AM 37.3498 120.8311 199° South  Level Estimated
04:15AM 37.2824 120.8023 199° South  Level Estimated
04:16AM 37.2150 120.7735 199° South  Level Estimated
04:17AM 37.1476 120.7448 199° South  Level Estimated
04:18AM 37.0801 120.7162 199° South  Level Estimated
04:19AM 37.0127 120.6876 199° South  Level Estimated
04:20AM 36.9452 120.6590 199° South  Level Estimated
04:21AM 36.8778 120.6305 199° South  Level Estimated
04:22AM 36.8103 120.6021 199° South  Level Estimated
04:23AM 36.7429 120.5736 199° South  Level Estimated
04:24AM 36.6754 120.5453 199° South  Level Estimated
04:25AM 36.6079 120.5170 199° South  Level Estimated
04:26AM 36.5404 120.4887 199° South  Level Estimated
04:27AM 36.4729 120.4605 199° South  Level Estimated
04:28AM 36.4054 120.4324 199° South  Level Estimated
04:29AM 36.3379 120.4043 199° South  Level Estimated
04:30AM 36.2704 120.3762 199° South  Level Estimated
04:31AM 36.2661 120.3744 199° South  Level Estimated
04:32AM 36.2661 120.3744 238° Southwest  Level Estimated
04:33AM 36.2661 120.3744 238° Southwest  Level Estimated
04:34AM 36.2661 120.3744 238° Southwest  Level Estimated
04:35AM 36.2661 120.3744 238° Southwest  Level Estimated